createdAt,value
2019-02-23T00:01:12.675Z,-4.20
2019-02-23T00:03:48.936Z,-4.16
2019-02-23T00:06:29.753Z,-4.18
2019-02-23T00:09:02.181Z,-4.24
2019-02-23T00:11:39.473Z,-4.24
2019-02-23T00:14:15.321Z,-4.21
2019-02-23T00:16:51.075Z,-4.33
2019-02-23T00:19:26.864Z,-4.33
2019-02-23T00:22:02.612Z,-4.30
2019-02-23T00:24:38.389Z,-4.30
2019-02-23T00:27:14.182Z,-4.43
2019-02-23T00:29:50.141Z,-4.27
2019-02-23T00:32:26.297Z,-4.24
2019-02-23T00:35:02.158Z,-4.37
2019-02-23T00:37:38.108Z,-4.48
2019-02-23T00:40:14.063Z,-4.48
2019-02-23T00:42:49.919Z,-4.48
2019-02-23T00:45:25.774Z,-4.54
2019-02-23T00:48:01.628Z,-4.51
2019-02-23T00:50:37.487Z,-4.60
2019-02-23T00:53:14.463Z,-4.58
2019-02-23T00:55:50.519Z,-4.58
2019-02-23T00:58:26.271Z,-4.62
2019-02-23T01:01:02.130Z,-4.64
2019-02-23T01:03:37.990Z,-4.65
2019-02-23T01:06:13.844Z,-4.62
2019-02-23T01:08:49.687Z,-4.59
2019-02-23T01:11:25.555Z,-4.53
2019-02-23T01:14:01.413Z,-4.55
2019-02-23T01:16:37.251Z,-4.54
2019-02-23T01:19:13.416Z,-4.53
2019-02-23T01:21:49.271Z,-4.54
2019-02-23T01:24:25.123Z,-4.59
2019-02-23T01:27:00.990Z,-4.69
2019-02-23T01:29:36.837Z,-4.68
2019-02-23T01:32:12.696Z,-4.59
2019-02-23T01:34:48.547Z,-4.50
2019-02-23T01:37:24.501Z,-4.57
2019-02-23T01:40:00.367Z,-4.54
2019-02-23T01:42:36.831Z,-4.66
2019-02-23T01:45:12.683Z,-4.63
2019-02-23T01:47:48.539Z,-4.63
2019-02-23T01:50:24.392Z,-4.65
2019-02-23T01:53:00.233Z,-4.65
2019-02-23T01:55:36.086Z,-4.75
2019-02-23T01:58:11.950Z,-4.79
2019-02-23T02:00:47.804Z,-4.78
2019-02-23T02:03:25.291Z,-4.79
2019-02-23T02:06:01.147Z,-4.80
2019-02-23T02:08:37.197Z,-4.76
2019-02-23T02:11:13.255Z,-4.76
2019-02-23T02:13:49.333Z,-4.76
2019-02-23T02:16:26.201Z,-4.74
2019-02-23T02:19:02.056Z,-4.70
2019-02-23T02:21:37.917Z,-4.72
2019-02-23T02:24:13.753Z,-4.72
2019-02-23T02:26:49.618Z,-4.72
2019-02-23T02:29:25.769Z,-4.73
2019-02-23T02:32:01.624Z,-4.70
2019-02-23T02:34:37.493Z,-4.70
2019-02-23T02:37:13.745Z,-4.75
2019-02-23T02:39:49.611Z,-4.81
2019-02-23T02:42:25.451Z,-4.84
2019-02-23T02:45:01.308Z,-4.88
2019-02-23T02:47:37.057Z,-4.87
2019-02-23T02:50:23.877Z,-4.82
2019-02-23T02:52:50.917Z,-4.87
2019-02-23T02:55:26.788Z,-4.79
2019-02-23T02:58:02.630Z,-4.74
2019-02-23T03:00:38.892Z,-4.73
2019-02-23T03:03:14.752Z,-4.73
2019-02-23T03:05:50.592Z,-4.75
2019-02-23T03:08:26.314Z,-4.84
2019-02-23T03:11:02.067Z,-4.86
2019-02-23T03:13:38.174Z,-4.91
2019-02-23T03:16:15.047Z,-4.96
2019-02-23T03:18:50.905Z,-5.00
2019-02-23T03:21:27.887Z,-5.03
2019-02-23T03:24:03.704Z,-5.12
2019-02-23T03:26:39.790Z,-5.14
2019-02-23T03:29:15.550Z,-5.15
2019-02-23T03:31:51.536Z,-5.12
2019-02-23T03:34:27.353Z,-5.21
2019-02-23T03:37:03.204Z,-5.26
2019-02-23T03:39:38.948Z,-5.25
2019-02-23T03:42:15.832Z,-5.21
2019-02-23T03:44:51.684Z,-5.20
2019-02-23T03:47:27.532Z,-5.28
2019-02-23T03:50:03.708Z,-5.33
2019-02-23T03:52:39.548Z,-5.37
2019-02-23T03:55:15.404Z,-5.45
2019-02-23T03:57:51.158Z,-5.43
2019-02-23T04:00:27.007Z,-5.49
2019-02-23T04:03:02.864Z,-5.60
2019-02-23T04:05:39.039Z,-5.76
2019-02-23T04:08:14.879Z,-5.66
2019-02-23T04:10:50.745Z,-5.66
2019-02-23T04:13:26.593Z,-5.68
2019-02-23T04:16:02.438Z,-5.70
2019-02-23T04:18:38.300Z,-5.65
2019-02-23T04:21:14.148Z,-5.57
2019-02-23T04:23:50.007Z,-5.50
2019-02-23T04:26:25.867Z,-5.50
2019-02-23T04:29:01.714Z,-5.51
2019-02-23T04:31:37.988Z,-5.40
2019-02-23T04:34:13.834Z,-5.36
2019-02-23T04:36:49.678Z,-5.40
2019-02-23T04:39:25.560Z,-5.40
2019-02-23T04:42:01.506Z,-5.41
2019-02-23T04:44:37.358Z,-5.40
2019-02-23T04:47:13.206Z,-5.47
2019-02-23T04:49:55.926Z,-5.49
2019-02-23T04:52:31.780Z,-5.50
2019-02-23T04:55:08.782Z,-5.53
2019-02-23T04:57:44.613Z,-5.52
2019-02-23T05:00:20.473Z,-5.57
2019-02-23T05:02:56.341Z,-5.57
2019-02-23T05:05:32.316Z,-5.48
2019-02-23T05:08:08.222Z,-5.40
2019-02-23T05:10:44.086Z,-5.34
2019-02-23T05:13:19.934Z,-5.29
2019-02-23T05:15:55.787Z,-5.28
2019-02-23T05:18:31.658Z,-5.29
2019-02-23T05:21:07.502Z,-5.34
2019-02-23T05:23:43.462Z,-5.37
2019-02-23T05:26:19.315Z,-5.42
2019-02-23T05:28:55.153Z,-5.46
2019-02-23T05:31:31.021Z,-5.53
2019-02-23T05:34:07.013Z,-5.53
2019-02-23T05:36:42.952Z,-5.63
2019-02-23T05:39:18.783Z,-5.67
2019-02-23T05:41:54.641Z,-5.67
2019-02-23T05:44:30.509Z,-5.63
2019-02-23T05:47:06.339Z,-5.75
2019-02-23T05:49:42.205Z,-5.75
2019-02-23T05:52:18.048Z,-5.69
2019-02-23T05:54:53.908Z,-5.62
2019-02-23T05:57:29.768Z,-5.49
2019-02-23T06:00:08.732Z,-5.39
2019-02-23T06:02:45.334Z,-5.34
2019-02-23T06:05:21.527Z,-5.34
2019-02-23T06:07:57.373Z,-5.28
2019-02-23T06:10:33.238Z,-5.23
2019-02-23T06:13:09.076Z,-5.21
2019-02-23T06:15:45.241Z,-5.15
2019-02-23T06:18:21.204Z,-5.12
2019-02-23T06:20:57.057Z,-5.20
2019-02-23T06:23:32.905Z,-5.10
2019-02-23T06:26:08.755Z,-5.00
2019-02-23T06:28:44.620Z,-4.96
2019-02-23T06:31:20.469Z,-4.91
2019-02-23T06:33:56.334Z,-4.89
2019-02-23T06:36:32.176Z,-4.92
2019-02-23T06:39:08.026Z,-4.79
2019-02-23T06:41:43.940Z,-4.66
2019-02-23T06:44:19.941Z,-4.57
2019-02-23T06:46:55.807Z,-4.50
2019-02-23T06:49:31.649Z,-4.40
2019-02-23T06:52:07.619Z,-4.31
2019-02-23T06:54:43.455Z,-4.15
2019-02-23T06:57:19.324Z,-4.05
2019-02-23T06:59:55.179Z,-4.10
2019-02-23T07:02:31.020Z,-4.03
2019-02-23T07:05:06.872Z,-3.91
2019-02-23T07:07:42.735Z,-3.81
2019-02-23T07:10:19.717Z,-3.71
2019-02-23T07:12:55.565Z,-3.66
2019-02-23T07:15:31.429Z,-3.58
2019-02-23T07:18:07.267Z,-3.43
2019-02-23T07:20:44.558Z,-3.31
2019-02-23T07:23:20.941Z,-3.28
2019-02-23T07:25:56.781Z,-3.08
2019-02-23T07:28:32.641Z,-3.05
2019-02-23T07:31:08.494Z,-2.98
2019-02-23T07:33:44.341Z,-2.92
2019-02-23T07:36:20.194Z,-2.88
2019-02-23T07:38:56.049Z,-2.77
2019-02-23T07:41:31.839Z,-2.78
2019-02-23T07:44:07.903Z,-2.69
2019-02-23T07:46:44.316Z,-2.59
2019-02-23T07:49:21.828Z,-2.59
2019-02-23T07:51:58.683Z,-2.70
2019-02-23T07:54:34.666Z,-2.70
2019-02-23T07:57:10.384Z,-2.77
2019-02-23T07:59:46.197Z,-2.79
2019-02-23T08:02:21.979Z,-2.90
2019-02-23T08:04:57.841Z,-2.89
2019-02-23T08:07:35.513Z,-2.79
2019-02-23T08:10:12.611Z,-2.87
2019-02-23T08:12:48.508Z,-2.79
2019-02-23T08:15:24.356Z,-2.78
2019-02-23T08:18:00.621Z,-2.76
2019-02-23T08:20:36.477Z,-2.81
2019-02-23T08:23:12.540Z,-2.82
2019-02-23T08:25:48.331Z,-2.77
2019-02-23T08:28:24.124Z,-2.83
2019-02-23T08:30:59.897Z,-2.89
2019-02-23T08:33:35.713Z,-2.84
2019-02-23T08:36:11.671Z,-2.79
2019-02-23T08:38:47.411Z,-2.74
2019-02-23T08:41:23.315Z,-2.66
2019-02-23T08:43:59.160Z,-2.63
2019-02-23T08:46:34.958Z,-2.64
2019-02-23T08:49:10.729Z,-2.51
2019-02-23T08:51:46.628Z,-2.42
2019-02-23T08:54:32.186Z,-2.25
2019-02-23T08:57:13.831Z,-2.21
2019-02-23T08:59:57.404Z,-2.27
2019-02-23T09:02:33.251Z,-2.28
2019-02-23T09:05:10.317Z,-2.31
2019-02-23T09:07:46.061Z,-2.32
2019-02-23T09:10:21.901Z,-2.27
2019-02-23T09:12:57.672Z,-2.27
2019-02-23T09:15:33.410Z,-2.04
2019-02-23T09:18:10.323Z,-2.01
2019-02-23T09:20:56.518Z,-1.89
2019-02-23T09:23:35.727Z,-2.02
2019-02-23T09:26:11.571Z,-1.91
2019-02-23T09:28:52.183Z,-1.81
2019-02-23T09:31:28.333Z,-1.69
2019-02-23T09:34:04.083Z,-1.68
2019-02-23T09:36:40.424Z,-1.43
2019-02-23T09:39:16.195Z,-1.48
2019-02-23T09:41:52.025Z,-1.45
2019-02-23T09:44:27.924Z,-1.43
2019-02-23T09:47:03.679Z,-1.41
2019-02-23T09:49:39.481Z,-1.39
2019-02-23T09:52:15.252Z,-1.32
2019-02-23T09:54:51.154Z,-1.35
2019-02-23T09:57:27.004Z,-1.36
2019-02-23T10:00:02.867Z,-1.19
2019-02-23T10:02:39.970Z,-1.12
2019-02-23T10:05:15.802Z,-1.04
2019-02-23T10:07:51.680Z,-0.94
2019-02-23T10:10:27.467Z,-0.86
2019-02-23T10:13:03.374Z,-0.74
2019-02-23T10:15:39.220Z,-0.77
2019-02-23T10:18:14.996Z,-0.78
2019-02-23T10:20:50.821Z,-0.67
2019-02-23T10:23:26.664Z,-0.51
2019-02-23T10:26:02.529Z,-0.43
2019-02-23T10:28:38.366Z,-0.30
2019-02-23T10:31:14.342Z,-0.21
2019-02-23T10:33:50.177Z,-0.23
2019-02-23T10:36:25.893Z,-0.10
2019-02-23T10:39:01.712Z,0.03
2019-02-23T10:41:38.999Z,0.17
2019-02-23T10:44:14.810Z,0.30
2019-02-23T10:46:50.550Z,0.29
2019-02-23T10:49:26.330Z,0.23
2019-02-23T10:52:02.179Z,0.31
2019-02-23T10:54:37.982Z,0.54
2019-02-23T10:57:13.788Z,0.70
2019-02-23T10:59:50.027Z,0.85
2019-02-23T11:02:25.807Z,1.03
2019-02-23T11:05:01.591Z,1.09
2019-02-23T11:07:38.697Z,1.07
2019-02-23T11:10:14.658Z,1.21
2019-02-23T11:12:50.490Z,1.34
2019-02-23T11:15:26.614Z,1.16
2019-02-23T11:18:03.069Z,1.12
2019-02-23T11:20:40.010Z,1.03
2019-02-23T11:23:15.806Z,1.01
2019-02-23T11:25:51.576Z,0.99
2019-02-23T11:28:27.554Z,1.28
2019-02-23T11:31:03.905Z,1.43
2019-02-23T11:33:40.008Z,1.63
2019-02-23T11:36:15.829Z,1.74
2019-02-23T11:38:51.647Z,1.83
2019-02-23T11:41:27.505Z,1.68
2019-02-23T11:44:03.312Z,1.79
2019-02-23T11:46:39.120Z,1.80
2019-02-23T11:49:14.967Z,1.87
2019-02-23T11:51:50.798Z,1.69
2019-02-23T11:54:26.562Z,1.61
2019-02-23T11:57:02.645Z,1.70
2019-02-23T11:59:41.159Z,1.68
2019-02-23T12:02:16.959Z,1.37
2019-02-23T12:04:52.765Z,1.09
2019-02-23T12:07:28.517Z,0.99
2019-02-23T12:10:06.977Z,0.87
2019-02-23T12:12:42.878Z,0.86
2019-02-23T12:15:18.688Z,0.92
2019-02-23T12:17:54.450Z,1.13
2019-02-23T12:20:30.337Z,1.22
2019-02-23T12:23:06.137Z,1.21
2019-02-23T12:25:41.933Z,1.42
2019-02-23T12:28:18.105Z,1.65
2019-02-23T12:30:53.967Z,1.71
2019-02-23T12:33:29.817Z,1.67
2019-02-23T12:36:06.223Z,1.54
2019-02-23T12:38:42.344Z,1.51
2019-02-23T12:41:18.190Z,1.40
2019-02-23T12:43:54.040Z,1.21
2019-02-23T12:46:29.899Z,1.02
2019-02-23T12:49:05.750Z,1.05
2019-02-23T12:51:41.608Z,1.08
2019-02-23T12:54:17.386Z,1.24
2019-02-23T12:56:53.220Z,1.14
2019-02-23T12:59:29.072Z,1.33
2019-02-23T13:02:04.922Z,1.31
2019-02-23T13:04:40.662Z,1.22
2019-02-23T13:07:16.532Z,1.11
2019-02-23T13:09:52.272Z,0.94
2019-02-23T13:12:34.171Z,0.94
2019-02-23T13:15:10.777Z,0.92
2019-02-23T13:18:22.546Z,0.96
2019-02-23T13:21:07.505Z,1.05
2019-02-23T13:23:58.410Z,1.04
2019-02-23T13:26:37.231Z,0.98
2019-02-23T13:29:25.483Z,0.89
2019-02-23T13:32:25.398Z,0.83
2019-02-23T13:35:20.712Z,0.82
2019-02-23T13:38:02.714Z,0.82
2019-02-23T13:41:01.043Z,0.71
2019-02-23T13:44:02.348Z,0.80
2019-02-23T13:46:56.428Z,0.94
2019-02-23T13:49:37.911Z,1.04
2019-02-23T13:52:14.451Z,1.12
2019-02-23T13:55:19.206Z,1.08
2019-02-23T13:58:00.794Z,1.10
2019-02-23T14:00:55.075Z,1.08
2019-02-23T14:03:39.738Z,1.20
2019-02-23T14:06:24.559Z,1.25
2019-02-23T14:09:37.743Z,1.18
2019-02-23T14:12:34.991Z,1.14
2019-02-23T14:15:36.752Z,1.18
2019-02-23T14:18:50.299Z,1.15
2019-02-23T14:21:52.172Z,1.15
2019-02-23T14:24:36.613Z,1.15
2019-02-23T14:27:36.432Z,1.26
2019-02-23T14:30:30.516Z,1.33
2019-02-23T14:33:18.128Z,1.45
2019-02-23T14:36:21.326Z,1.47
2019-02-23T14:39:13.073Z,1.60
2019-02-23T14:42:12.393Z,1.51
2019-02-23T14:45:13.303Z,1.39
2019-02-23T14:48:18.163Z,1.40
2019-02-23T14:51:15.637Z,1.24
2019-02-23T14:54:09.492Z,1.32
2019-02-23T14:57:00.394Z,1.34
2019-02-23T14:59:48.036Z,1.44
2019-02-23T15:03:00.530Z,1.34
2019-02-23T15:05:39.274Z,1.38
2019-02-23T15:08:36.176Z,1.17
2019-02-23T15:11:31.425Z,1.08
2019-02-23T15:14:12.830Z,1.12
2019-02-23T15:17:09.464Z,1.16
2019-02-23T15:20:09.432Z,1.13
2019-02-23T15:23:00.399Z,1.18
2019-02-23T15:25:45.154Z,1.08
2019-02-23T15:28:52.082Z,1.06
2019-02-23T15:31:47.198Z,1.11
2019-02-23T15:34:46.197Z,1.15
2019-02-23T15:37:51.818Z,1.07
2019-02-23T15:40:36.747Z,1.05
2019-02-23T15:43:27.793Z,1.13
2019-02-23T15:46:18.534Z,1.02
2019-02-23T15:48:57.459Z,0.99
2019-02-23T15:51:33.315Z,0.99
2019-02-23T15:54:09.273Z,0.93
2019-02-23T15:56:45.119Z,0.91
2019-02-23T15:59:21.081Z,0.97
2019-02-23T16:01:56.888Z,0.94
2019-02-23T16:04:34.774Z,0.82
2019-02-23T16:07:10.592Z,0.78
2019-02-23T16:09:46.442Z,0.71
2019-02-23T16:12:24.403Z,0.69
2019-02-23T16:15:00.348Z,0.68
2019-02-23T16:17:36.416Z,0.71
2019-02-23T16:20:12.355Z,0.66
2019-02-23T16:22:48.127Z,0.53
2019-02-23T16:25:23.856Z,0.54
2019-02-23T16:27:59.683Z,0.54
2019-02-23T16:30:36.461Z,0.57
2019-02-23T16:33:12.297Z,0.53
2019-02-23T16:35:48.161Z,0.53
2019-02-23T16:38:23.947Z,0.51
2019-02-23T16:40:59.780Z,0.51
2019-02-23T16:43:35.819Z,0.38
2019-02-23T16:46:11.920Z,0.33
2019-02-23T16:48:47.708Z,0.41
2019-02-23T16:51:36.699Z,0.35
2019-02-23T16:54:26.651Z,0.36
2019-02-23T16:57:17.459Z,0.37
2019-02-23T17:00:01.740Z,0.36
2019-02-23T17:02:41.296Z,0.43
2019-02-23T17:05:17.082Z,0.34
2019-02-23T17:07:52.839Z,0.29
2019-02-23T17:10:28.610Z,0.19
2019-02-23T17:13:04.435Z,0.17
2019-02-23T17:15:40.492Z,0.06
2019-02-23T17:18:16.264Z,-0.04
2019-02-23T17:20:52.065Z,-0.11
2019-02-23T17:23:27.861Z,-0.13
2019-02-23T17:26:04.638Z,-0.14
2019-02-23T17:28:40.479Z,-0.15
2019-02-23T17:31:16.248Z,-0.24
2019-02-23T17:33:53.069Z,-0.26
2019-02-23T17:36:28.847Z,-0.28
2019-02-23T17:39:05.335Z,-0.31
2019-02-23T17:41:42.842Z,-0.34
2019-02-23T17:44:18.614Z,-0.38
2019-02-23T17:46:54.383Z,-0.41
2019-02-23T17:49:30.249Z,-0.35
2019-02-23T17:52:06.107Z,-0.33
2019-02-23T17:54:41.939Z,-0.22
2019-02-23T17:57:17.791Z,-0.16
2019-02-23T17:59:53.956Z,-0.07
2019-02-23T18:02:29.751Z,0.02
2019-02-23T18:05:06.174Z,0.10
2019-02-23T18:07:42.032Z,0.17
2019-02-23T18:10:17.833Z,0.25
2019-02-23T18:12:53.647Z,0.29
2019-02-23T18:15:29.468Z,0.24
2019-02-23T18:18:05.305Z,0.22
2019-02-23T18:20:41.393Z,0.13
2019-02-23T18:23:17.351Z,0.04
2019-02-23T18:25:53.083Z,-0.01
2019-02-23T18:28:28.907Z,-0.04
2019-02-23T18:31:04.778Z,-0.04
2019-02-23T18:33:40.653Z,-0.05
2019-02-23T18:36:16.468Z,-0.10
2019-02-23T18:38:52.307Z,-0.09
2019-02-23T18:41:29.411Z,-0.08
2019-02-23T18:44:05.224Z,-0.11
2019-02-23T18:46:41.811Z,-0.14
2019-02-23T18:49:17.594Z,-0.15
2019-02-23T18:52:04.203Z,-0.13
2019-02-23T18:54:54.649Z,-0.17
2019-02-23T18:57:42.459Z,-0.24
2019-02-23T19:00:35.258Z,-0.32
2019-02-23T19:03:10.099Z,-0.45
2019-02-23T19:05:49.923Z,-0.50
2019-02-23T19:08:23.486Z,-0.53
2019-02-23T19:11:01.847Z,-0.60
2019-02-23T19:13:37.735Z,-0.62
2019-02-23T19:16:13.479Z,-0.55
2019-02-23T19:18:49.371Z,-0.48
2019-02-23T19:21:25.159Z,-0.44
2019-02-23T19:24:01.046Z,-0.45
2019-02-23T19:26:38.403Z,-0.45
2019-02-23T19:29:14.411Z,-0.48
2019-02-23T19:31:50.256Z,-0.46
2019-02-23T19:34:26.051Z,-0.44
2019-02-23T19:37:01.926Z,-0.40
2019-02-23T19:39:37.755Z,-0.44
2019-02-23T19:42:13.609Z,-0.48
2019-02-23T19:44:51.172Z,-0.48
2019-02-23T19:47:27.144Z,-0.52
2019-02-23T19:50:03.658Z,-0.55
2019-02-23T19:52:40.598Z,-0.71
2019-02-23T19:55:17.108Z,-0.82
2019-02-23T19:57:53.037Z,-0.90
2019-02-23T20:00:28.864Z,-0.99
2019-02-23T20:03:04.828Z,-1.00
2019-02-23T20:05:41.170Z,-0.99
2019-02-23T20:08:17.118Z,-0.96
2019-02-23T20:10:52.927Z,-0.98
2019-02-23T20:13:28.762Z,-0.94
2019-02-23T20:16:04.633Z,-0.98
2019-02-23T20:18:40.514Z,-1.00
2019-02-23T20:21:26.681Z,-1.03
2019-02-23T20:24:09.096Z,-1.07
2019-02-23T20:26:55.468Z,-1.12
2019-02-23T20:29:32.761Z,-1.17
2019-02-23T20:32:13.839Z,-1.20
2019-02-23T20:34:49.902Z,-1.25
2019-02-23T20:37:25.726Z,-1.28
2019-02-23T20:40:03.073Z,-1.29
2019-02-23T20:42:42.458Z,-1.31
2019-02-23T20:45:19.597Z,-1.34
2019-02-23T20:47:55.533Z,-1.36
2019-02-23T20:50:31.377Z,-1.40
2019-02-23T20:53:07.228Z,-1.44
2019-02-23T20:55:48.649Z,-1.48
2019-02-23T20:58:25.069Z,-1.56
2019-02-23T21:01:01.042Z,-1.56
2019-02-23T21:03:39.011Z,-1.57
2019-02-23T21:06:14.837Z,-1.62
2019-02-23T21:08:50.844Z,-1.65
2019-02-23T21:11:26.727Z,-1.65
2019-02-23T21:14:10.663Z,-1.75
2019-02-23T21:16:55.466Z,-1.75
2019-02-23T21:19:31.763Z,-1.79
2019-02-23T21:22:08.254Z,-1.82
2019-02-23T21:24:44.002Z,-1.84
2019-02-23T21:27:21.248Z,-1.84
2019-02-23T21:29:57.063Z,-1.89
2019-02-23T21:32:32.986Z,-1.96
2019-02-23T21:35:09.636Z,-1.93
2019-02-23T21:37:47.064Z,-1.96
2019-02-23T21:40:22.862Z,-2.01
2019-02-23T21:42:59.211Z,-2.01
2019-02-23T21:45:35.184Z,-2.00
2019-02-23T21:48:11.074Z,-2.08
2019-02-23T21:50:48.566Z,-2.07
2019-02-23T21:53:24.424Z,-2.10
2019-02-23T21:56:00.301Z,-2.10
2019-02-23T21:58:36.110Z,-2.12
2019-02-23T22:01:13.084Z,-2.15
2019-02-23T22:03:49.185Z,-2.17
2019-02-23T22:06:25.080Z,-2.21
2019-02-23T22:09:00.858Z,-2.22
2019-02-23T22:11:38.290Z,-2.27
2019-02-23T22:14:14.247Z,-2.34
2019-02-23T22:16:50.030Z,-2.40
2019-02-23T22:19:25.850Z,-2.34
2019-02-23T22:22:01.695Z,-2.35
2019-02-23T22:24:47.267Z,-2.34
2019-02-23T22:27:31.208Z,-2.29
2019-02-23T22:30:01.211Z,-2.26
2019-02-23T22:32:41.109Z,-2.22
2019-02-23T22:35:17.455Z,-2.25
2019-02-23T22:37:53.290Z,-2.25
2019-02-23T22:40:30.936Z,-2.27
2019-02-23T22:43:09.502Z,-2.31
2019-02-23T22:45:46.975Z,-2.33
2019-02-23T22:48:24.781Z,-2.34
2019-02-23T22:51:01.372Z,-2.37
2019-02-23T22:53:39.609Z,-2.36
2019-02-23T22:56:17.656Z,-2.41
2019-02-23T22:58:57.697Z,-2.42
2019-02-23T23:01:34.629Z,-2.43
2019-02-23T23:04:12.735Z,-2.46
2019-02-23T23:06:50.723Z,-2.48
2019-02-23T23:09:26.696Z,-2.49
2019-02-23T23:12:02.550Z,-2.50
2019-02-23T23:14:38.722Z,-2.54
2019-02-23T23:17:14.554Z,-2.59
2019-02-23T23:19:51.537Z,-2.58
2019-02-23T23:22:29.537Z,-2.59
2019-02-23T23:25:07.310Z,-2.55
2019-02-23T23:27:49.495Z,-2.56
2019-02-23T23:30:26.322Z,-2.58
2019-02-23T23:33:05.901Z,-2.59
2019-02-23T23:35:42.553Z,-2.57
2019-02-23T23:38:18.923Z,-2.59
2019-02-23T23:40:55.230Z,-2.60
2019-02-23T23:43:32.091Z,-2.61
2019-02-23T23:46:08.505Z,-2.61
2019-02-23T23:48:44.370Z,-2.64
2019-02-23T23:51:20.223Z,-2.65
2019-02-23T23:53:56.175Z,-2.65
2019-02-23T23:56:38.173Z,-2.68
2019-02-23T23:59:20.565Z,-2.70
